Disclaimer

Please do not use the information listed here in-flight or in-navigation, as they are not provided to us by the airports but are provided by volunteers, so they might be outdated.

Search


Regions


Airport information page

Radio informations:
PACIFIC RDO - 122.5 MHz
VICTORIA TRML - 132.7 MHz

Airport informations:
Latitude: 49° 01' 31.00" N
Longitude: 122° 21' 38.00" W
Elevation: 195 feet - 59 meters
Operating hours: 24 hour operations
Operating agency: Civil government, landing fees and diplomatic clearance may be required
Timezone: UTC-8(-7DT) - Second Sunday in March at 0200 to first Sunday in November at 0200 local time (Exception Arizona and that portion of Indiana in the Eastern Time Zone)
Fuel: Jet A, without icing inhibitor.

Jet A1+, Jet A1 with icing inhibitor.

100/130 MIL Spec, low lead, aviation gasoline (BLUE)

Runway information:
01/19 - 5328 x 200 feet< - >1624 x 61 meters
01L/19R - 1500 x 100 feet< - >457 x 30 meters
07/25 - 9600 x 200 feet< - >2926 x 61 meters

Recent METARs:
CYXX 181700Z 02004KT 30SM SCT220 03/M01 A3024 RMK CI4 SLP244
CYXX 181700Z 02004KT 30SM SCT220 03/M01 A3024 RMK CI4 SLP244
CYXX 181800Z 01005KT 30SM SCT230 05/M00 A3023 RMK CI3 SLP241

Airport on the map: